createdAt,value
2018-01-16T00:02:26.945Z,10.13
2018-01-16T00:04:55.076Z,8.73
2018-01-16T00:07:27.741Z,8.50
2018-01-16T00:09:55.253Z,7.93
2018-01-16T00:12:22.820Z,8.40
2018-01-16T00:14:50.348Z,6.77
2018-01-16T00:17:17.905Z,7.30
2018-01-16T00:19:45.529Z,8.03
2018-01-16T00:25:08.995Z,6.57
2018-01-16T00:27:36.510Z,7.10
2018-01-16T00:30:04.064Z,6.03
2018-01-16T00:32:31.566Z,7.90
2018-01-16T00:34:59.067Z,6.07
2018-01-16T00:37:26.582Z,7.37
2018-01-16T00:39:54.177Z,7.90
2018-01-16T00:42:21.664Z,7.43
2018-01-16T00:44:49.163Z,6.57
2018-01-16T00:47:16.694Z,6.63
2018-01-16T00:49:44.357Z,7.70
2018-01-16T00:52:11.827Z,5.70
2018-01-16T00:54:39.288Z,6.13
2018-01-16T00:57:06.786Z,6.00
2018-01-16T00:59:34.459Z,5.53
2018-01-16T01:02:02.041Z,6.20
2018-01-16T01:04:29.521Z,5.70
2018-01-16T01:06:57.066Z,5.17
2018-01-16T01:09:24.591Z,5.77
2018-01-16T01:11:52.100Z,5.30
2018-01-16T01:14:19.583Z,5.60
2018-01-16T01:16:47.048Z,5.30
2018-01-16T01:19:14.577Z,5.43
2018-01-16T01:21:42.038Z,4.63
2018-01-16T01:24:09.511Z,4.40
2018-01-16T01:26:51.306Z,5.00
2018-01-16T01:29:18.925Z,4.33
2018-01-16T01:31:46.418Z,3.90
2018-01-16T01:34:13.906Z,4.10
2018-01-16T01:36:41.535Z,4.30
2018-01-16T01:39:09.150Z,4.13
2018-01-16T01:41:36.656Z,3.60
2018-01-16T01:44:04.254Z,3.87
2018-01-16T01:46:31.750Z,3.80
2018-01-16T01:49:11.211Z,3.37
2018-01-16T01:51:38.789Z,3.33
2018-01-16T01:54:07.153Z,3.50
2018-01-16T01:56:34.924Z,3.30
2018-01-16T01:59:02.427Z,3.30
2018-01-16T02:01:30.977Z,3.27
2018-01-16T02:03:58.637Z,3.20
2018-01-16T02:06:40.467Z,3.10
2018-01-16T02:09:07.929Z,3.20
2018-01-16T02:11:35.494Z,3.30
2018-01-16T02:14:02.967Z,3.13
2018-01-16T02:16:30.479Z,3.10
2018-01-16T02:18:57.951Z,3.07
2018-01-16T02:21:25.459Z,3.60
2018-01-16T02:23:52.943Z,3.77
2018-01-16T02:26:20.482Z,3.37
2018-01-16T02:28:48.031Z,3.00
2018-01-16T02:31:15.613Z,3.40
2018-01-16T02:33:43.189Z,3.10
2018-01-16T02:36:10.877Z,2.80
2018-01-16T02:38:38.476Z,3.20
2018-01-16T02:41:05.956Z,3.43
2018-01-16T02:43:33.529Z,2.60
2018-01-16T02:46:01.341Z,2.90
2018-01-16T02:48:28.959Z,2.80
2018-01-16T02:50:57.311Z,2.73
2018-01-16T02:53:24.888Z,2.80
2018-01-16T02:55:52.482Z,2.70
2018-01-16T02:58:20.621Z,2.53
2018-01-16T03:00:48.166Z,2.90
2018-01-16T03:03:15.766Z,2.47
2018-01-16T03:05:43.340Z,2.73
2018-01-16T03:08:10.862Z,2.70
2018-01-16T03:10:38.405Z,2.87
2018-01-16T03:13:05.937Z,3.00
2018-01-16T03:15:33.414Z,3.93
2018-01-16T03:18:00.911Z,2.23
2018-01-16T03:20:28.386Z,2.53
2018-01-16T03:22:55.855Z,2.70
2018-01-16T03:25:23.389Z,2.70
2018-01-16T03:27:51.194Z,2.43
2018-01-16T03:30:18.644Z,2.80
2018-01-16T03:32:46.082Z,2.53
2018-01-16T03:35:13.545Z,2.40
2018-01-16T03:37:41.474Z,2.53
2018-01-16T03:40:08.938Z,2.70
2018-01-16T03:42:36.427Z,2.40
2018-01-16T03:45:03.953Z,2.50
2018-01-16T03:47:31.408Z,2.00
2018-01-16T03:49:58.947Z,2.43
2018-01-16T03:52:26.477Z,2.30
2018-01-16T03:54:53.977Z,2.33
2018-01-16T03:57:21.446Z,2.10
2018-01-16T03:59:48.912Z,2.30
2018-01-16T04:02:16.402Z,2.40
2018-01-16T04:04:44.037Z,2.13
2018-01-16T04:07:25.748Z,2.30
2018-01-16T04:09:53.204Z,2.40
2018-01-16T04:12:20.645Z,2.00
2018-01-16T04:14:49.180Z,2.30
2018-01-16T04:17:16.615Z,2.50
2018-01-16T04:19:44.066Z,2.23
2018-01-16T04:22:11.561Z,2.17
2018-01-16T04:24:39.012Z,2.20
2018-01-16T04:27:06.484Z,2.17
2018-01-16T04:29:33.938Z,2.07
2018-01-16T04:32:01.551Z,2.00
2018-01-16T04:34:29.042Z,2.20
2018-01-16T04:36:56.505Z,2.10
2018-01-16T04:39:24.049Z,2.30
2018-01-16T04:41:51.520Z,2.03
2018-01-16T04:44:19.031Z,2.30
2018-01-16T04:46:46.506Z,2.30
2018-01-16T04:49:13.954Z,2.13
2018-01-16T04:51:41.409Z,2.17
2018-01-16T04:54:09.573Z,2.17
2018-01-16T04:56:37.133Z,2.20
2018-01-16T04:59:04.949Z,2.40
2018-01-16T05:01:32.416Z,2.20
2018-01-16T05:03:59.954Z,2.23
2018-01-16T05:06:27.464Z,2.27
2018-01-16T05:08:54.958Z,2.37
2018-01-16T05:11:22.474Z,2.30
2018-01-16T05:13:49.978Z,2.23
2018-01-16T05:16:17.435Z,2.53
2018-01-16T05:18:45.076Z,2.00
2018-01-16T05:21:12.558Z,2.10
2018-01-16T05:23:40.065Z,2.10
2018-01-16T05:26:11.031Z,1.90
2018-01-16T05:28:38.589Z,2.30
2018-01-16T05:31:07.644Z,2.20
2018-01-16T05:33:35.241Z,2.00
2018-01-16T05:36:06.154Z,2.17
2018-01-16T05:38:36.391Z,2.27
2018-01-16T05:41:03.998Z,2.40
2018-01-16T05:43:33.947Z,2.10
2018-01-16T05:46:01.587Z,2.30
2018-01-16T05:48:29.230Z,3.17
2018-01-16T05:50:56.775Z,2.17
2018-01-16T05:53:24.302Z,2.33
2018-01-16T05:55:53.237Z,2.10
2018-01-16T05:58:20.823Z,1.90
2018-01-16T06:00:51.156Z,2.00
2018-01-16T06:03:18.867Z,2.10
2018-01-16T06:05:46.388Z,1.97
2018-01-16T06:08:13.837Z,1.90
2018-01-16T06:10:41.330Z,1.87
2018-01-16T06:13:08.791Z,2.00
2018-01-16T06:15:37.465Z,2.17
2018-01-16T06:18:05.112Z,2.20
2018-01-16T06:20:32.584Z,2.97
2018-01-16T06:23:00.151Z,2.10
2018-01-16T06:25:27.666Z,2.00
2018-01-16T06:27:55.165Z,2.10
2018-01-16T06:30:25.090Z,2.03
2018-01-16T06:32:52.666Z,2.03
2018-01-16T06:35:20.211Z,2.03
2018-01-16T06:37:49.681Z,2.00
2018-01-16T06:40:17.196Z,2.33
2018-01-16T06:42:44.655Z,2.20
2018-01-16T06:45:12.125Z,3.00
2018-01-16T06:47:45.520Z,2.10
2018-01-16T06:50:13.047Z,2.73
2018-01-16T06:52:40.525Z,3.30
2018-01-16T06:55:08.247Z,2.83
2018-01-16T06:57:35.787Z,2.60
2018-01-16T07:00:03.240Z,2.60
2018-01-16T07:02:30.877Z,3.40
2018-01-16T07:04:58.412Z,2.23
2018-01-16T07:07:26.748Z,2.17
2018-01-16T07:09:54.344Z,2.00
2018-01-16T07:12:22.120Z,3.80
2018-01-16T07:14:49.570Z,2.20
2018-01-16T07:17:17.070Z,3.00
2018-01-16T07:19:44.962Z,3.00
2018-01-16T07:22:12.441Z,2.63
2018-01-16T07:24:40.223Z,2.43
2018-01-16T07:27:07.970Z,2.70
2018-01-16T07:29:35.533Z,4.40
2018-01-16T07:32:03.929Z,2.60
2018-01-16T07:34:31.514Z,3.03
2018-01-16T07:36:59.069Z,2.10
2018-01-16T07:39:26.572Z,2.17
2018-01-16T07:41:54.112Z,4.10
2018-01-16T07:44:24.121Z,2.67
2018-01-16T07:46:51.815Z,2.87
2018-01-16T07:49:20.208Z,2.60
2018-01-16T07:51:47.838Z,2.30
2018-01-16T07:54:17.431Z,2.23
2018-01-16T07:56:45.157Z,3.07
2018-01-16T07:59:14.290Z,2.20
2018-01-16T08:01:41.877Z,3.60
2018-01-16T08:04:09.679Z,2.00
2018-01-16T08:06:51.482Z,2.20
2018-01-16T08:09:18.911Z,2.23
2018-01-16T08:11:46.397Z,2.03
2018-01-16T08:14:13.928Z,1.97
2018-01-16T08:16:41.438Z,2.10
2018-01-16T08:19:08.998Z,2.13
2018-01-16T08:21:36.561Z,2.30
2018-01-16T08:24:04.086Z,1.67
2018-01-16T08:26:31.739Z,2.43
2018-01-16T08:28:59.389Z,2.03
2018-01-16T08:31:27.197Z,2.57
2018-01-16T08:33:54.801Z,2.00
2018-01-16T08:36:22.314Z,2.20
2018-01-16T08:38:50.159Z,2.47
2018-01-16T08:41:17.731Z,2.17
2018-01-16T08:43:45.292Z,1.90
2018-01-16T08:46:12.855Z,2.13
2018-01-16T08:48:40.431Z,2.13
2018-01-16T08:51:07.982Z,2.30
2018-01-16T08:53:35.711Z,2.17
2018-01-16T08:56:08.159Z,2.63
2018-01-16T08:58:35.663Z,2.97
2018-01-16T09:01:03.144Z,3.93
2018-01-16T09:03:30.873Z,2.80
2018-01-16T09:05:58.341Z,3.93
2018-01-16T09:08:25.890Z,4.90
2018-01-16T09:10:53.337Z,2.80
2018-01-16T09:13:20.862Z,2.37
2018-01-16T09:15:48.459Z,2.30
2018-01-16T09:18:15.969Z,3.97
2018-01-16T09:20:43.541Z,2.50
2018-01-16T09:23:11.179Z,3.03
2018-01-16T09:25:38.738Z,2.70
2018-01-16T09:28:06.331Z,2.73
2018-01-16T09:30:33.790Z,4.17
2018-01-16T09:33:01.267Z,3.47
2018-01-16T09:35:28.798Z,2.40
2018-01-16T09:37:56.288Z,2.23
2018-01-16T09:40:23.754Z,2.30
2018-01-16T09:42:51.325Z,2.03
2018-01-16T09:45:18.891Z,2.77
2018-01-16T09:47:46.490Z,2.10
2018-01-16T09:50:14.029Z,2.30
2018-01-16T09:52:41.564Z,2.17
2018-01-16T09:55:09.483Z,2.30
2018-01-16T09:57:37.107Z,2.53
2018-01-16T10:00:04.741Z,2.00
2018-01-16T10:02:32.377Z,4.57
2018-01-16T10:04:59.921Z,2.40
2018-01-16T10:07:27.520Z,3.30
2018-01-16T10:09:55.016Z,2.40
2018-01-16T10:12:22.599Z,2.47
2018-01-16T10:14:50.149Z,2.97
2018-01-16T10:17:17.629Z,2.40
2018-01-16T10:19:45.095Z,3.43
2018-01-16T10:22:12.644Z,3.60
2018-01-16T10:24:40.262Z,3.40
2018-01-16T10:27:12.778Z,2.37
2018-01-16T10:29:40.338Z,3.03
2018-01-16T10:32:07.841Z,2.60
2018-01-16T10:34:35.379Z,2.50
2018-01-16T10:37:02.984Z,2.10
2018-01-16T10:39:30.505Z,2.30
2018-01-16T10:41:58.245Z,1.90
2018-01-16T10:44:26.030Z,2.37
2018-01-16T10:46:53.717Z,3.13
2018-01-16T10:49:21.313Z,2.57
2018-01-16T10:51:48.848Z,2.10
2018-01-16T10:54:16.443Z,2.80
2018-01-16T10:56:43.968Z,2.50
2018-01-16T10:59:11.614Z,2.10
2018-01-16T11:01:39.236Z,2.43
2018-01-16T11:04:06.885Z,3.27
2018-01-16T11:06:34.369Z,2.30
2018-01-16T11:09:01.993Z,2.00
2018-01-16T11:11:29.471Z,1.90
2018-01-16T11:13:57.138Z,2.10
2018-01-16T11:16:24.949Z,3.47
2018-01-16T11:18:52.470Z,5.67
2018-01-16T11:21:19.944Z,2.17
2018-01-16T11:23:47.462Z,2.17
2018-01-16T11:26:15.068Z,2.90
2018-01-16T11:28:42.649Z,1.90
2018-01-16T11:31:10.169Z,2.10
2018-01-16T11:33:37.818Z,1.93
2018-01-16T11:36:05.293Z,2.30
2018-01-16T11:38:32.814Z,1.80
2018-01-16T11:41:00.570Z,2.07
2018-01-16T11:43:28.100Z,2.00
2018-01-16T11:45:55.676Z,2.10
2018-01-16T11:48:23.173Z,2.00
2018-01-16T11:50:50.856Z,2.23
2018-01-16T11:53:18.449Z,2.00
2018-01-16T11:55:45.954Z,2.30
2018-01-16T11:58:13.439Z,2.00
2018-01-16T12:00:40.952Z,2.30
2018-01-16T12:03:08.489Z,3.13
2018-01-16T12:05:36.431Z,2.40
2018-01-16T12:08:03.951Z,2.43
2018-01-16T12:10:31.603Z,2.87
2018-01-16T12:12:59.984Z,4.50
2018-01-16T12:15:27.542Z,2.07
2018-01-16T12:17:55.111Z,2.40
2018-01-16T12:20:22.716Z,4.50
2018-01-16T12:22:50.325Z,2.47
2018-01-16T12:25:17.863Z,3.43
2018-01-16T12:27:45.646Z,2.33
2018-01-16T12:30:13.165Z,2.10
2018-01-16T12:32:41.087Z,2.83
2018-01-16T12:35:08.675Z,3.67
2018-01-16T12:37:36.204Z,2.37
2018-01-16T12:40:03.724Z,2.87
2018-01-16T12:42:31.320Z,2.63
2018-01-16T12:44:58.794Z,4.70
2018-01-16T12:47:26.430Z,2.30
2018-01-16T12:49:53.917Z,2.40
2018-01-16T12:52:21.627Z,2.10
2018-01-16T12:54:49.127Z,2.67
2018-01-16T12:57:16.955Z,2.23
2018-01-16T12:59:44.481Z,2.70
2018-01-16T13:02:12.053Z,2.43
2018-01-16T13:04:39.585Z,2.30
2018-01-16T13:07:07.190Z,2.70
2018-01-16T13:09:34.717Z,2.70
2018-01-16T13:12:02.156Z,3.07
2018-01-16T13:14:29.902Z,2.87
2018-01-16T13:16:57.503Z,2.40
2018-01-16T13:19:25.087Z,3.13
2018-01-16T13:21:52.892Z,2.60
2018-01-16T13:24:20.465Z,2.10
2018-01-16T13:26:53.161Z,2.30
2018-01-16T13:29:21.249Z,4.43
2018-01-16T13:31:48.905Z,2.93
2018-01-16T13:34:16.627Z,2.43
2018-01-16T13:36:44.239Z,2.63
2018-01-16T13:39:11.974Z,2.43
2018-01-16T13:41:39.538Z,2.57
2018-01-16T13:44:07.572Z,3.20
2018-01-16T13:46:35.306Z,3.77
2018-01-16T13:49:03.156Z,2.10
2018-01-16T13:51:30.731Z,2.83
2018-01-16T13:53:58.338Z,2.40
2018-01-16T13:56:25.926Z,2.17
2018-01-16T13:58:53.541Z,2.73
2018-01-16T14:01:21.022Z,2.47
2018-01-16T14:03:48.502Z,2.33
2018-01-16T14:06:21.132Z,3.13
2018-01-16T14:08:48.690Z,3.60
2018-01-16T14:11:16.238Z,3.50
2018-01-16T14:13:43.788Z,2.37
2018-01-16T14:16:11.700Z,2.20
2018-01-16T14:18:39.414Z,2.17
2018-01-16T14:21:07.031Z,2.10
2018-01-16T14:23:34.544Z,2.10
2018-01-16T14:26:02.022Z,2.80
2018-01-16T14:28:29.608Z,2.10
2018-01-16T14:30:57.141Z,1.97
2018-01-16T14:33:24.751Z,2.10
2018-01-16T14:35:52.422Z,3.00
2018-01-16T14:38:19.996Z,2.50
2018-01-16T14:40:47.566Z,2.10
2018-01-16T14:43:15.113Z,1.93
2018-01-16T14:45:42.677Z,2.30
2018-01-16T14:48:10.243Z,2.37
2018-01-16T14:50:37.742Z,2.00
2018-01-16T14:53:05.286Z,2.27
2018-01-16T14:55:32.859Z,2.30
2018-01-16T14:58:01.293Z,2.13
2018-01-16T15:00:28.782Z,2.40
2018-01-16T15:02:56.407Z,2.47
2018-01-16T15:05:23.979Z,2.47
2018-01-16T15:07:51.555Z,2.23
2018-01-16T15:10:19.147Z,2.20
2018-01-16T15:12:46.682Z,2.27
2018-01-16T15:15:14.136Z,2.33
2018-01-16T15:17:41.764Z,3.20
2018-01-16T15:20:09.346Z,2.77
2018-01-16T15:22:37.742Z,2.73
2018-01-16T15:25:05.267Z,2.43
2018-01-16T15:27:32.784Z,2.93
2018-01-16T15:30:00.330Z,4.43
2018-01-16T15:32:27.951Z,2.43
2018-01-16T15:34:55.510Z,2.77
2018-01-16T15:37:27.980Z,2.50
2018-01-16T15:39:55.562Z,2.60
2018-01-16T15:42:23.168Z,2.50
2018-01-16T15:44:50.694Z,2.83
2018-01-16T15:47:18.231Z,3.67
2018-01-16T15:49:45.856Z,2.87
2018-01-16T15:52:13.453Z,2.40
2018-01-16T15:54:41.081Z,2.20
2018-01-16T15:57:08.739Z,3.20
2018-01-16T15:59:36.350Z,3.83
2018-01-16T16:02:03.920Z,2.80
2018-01-16T16:04:31.572Z,3.17
2018-01-16T16:06:59.280Z,3.90
2018-01-16T16:09:27.016Z,2.97
2018-01-16T16:11:55.684Z,3.20
2018-01-16T16:14:23.695Z,3.17
2018-01-16T16:16:51.271Z,2.50
2018-01-16T16:19:18.975Z,3.07
2018-01-16T16:21:46.492Z,5.10
2018-01-16T16:24:15.298Z,3.20
2018-01-16T16:26:43.020Z,3.83
2018-01-16T16:29:10.686Z,2.83
2018-01-16T16:31:38.323Z,4.37
2018-01-16T16:34:07.008Z,5.07
2018-01-16T16:36:34.537Z,3.20
2018-01-16T16:39:02.145Z,3.53
2018-01-16T16:41:29.740Z,3.30
2018-01-16T16:43:57.408Z,3.57
2018-01-16T16:46:24.931Z,4.50
2018-01-16T16:48:52.560Z,3.30
2018-01-16T16:51:20.143Z,3.03
2018-01-16T16:53:48.100Z,3.87
2018-01-16T16:56:15.717Z,6.93
2018-01-16T16:58:43.421Z,4.13
2018-01-16T17:01:10.933Z,4.13
2018-01-16T17:03:38.561Z,4.10
2018-01-16T17:06:06.089Z,4.70
2018-01-16T17:08:33.716Z,5.53
2018-01-16T17:11:01.317Z,4.80
2018-01-16T17:13:29.012Z,5.23
2018-01-16T17:15:57.690Z,5.33
2018-01-16T17:18:25.435Z,5.47
2018-01-16T17:20:53.026Z,5.03
2018-01-16T17:23:20.626Z,4.83
2018-01-16T17:25:48.203Z,4.73
2018-01-16T17:28:15.890Z,3.40
2018-01-16T17:30:43.596Z,5.17
2018-01-16T17:33:11.151Z,6.43
2018-01-16T17:35:38.786Z,5.83
2018-01-16T17:38:06.649Z,4.27
2018-01-16T17:40:34.216Z,4.43
2018-01-16T17:43:01.946Z,4.20
2018-01-16T17:45:29.454Z,4.00
2018-01-16T17:47:57.077Z,4.80
2018-01-16T17:50:24.660Z,7.27
2018-01-16T17:52:52.314Z,5.77
2018-01-16T17:55:19.873Z,4.17
2018-01-16T17:57:47.442Z,6.40
2018-01-16T18:00:15.156Z,3.40
2018-01-16T18:02:42.814Z,3.80
2018-01-16T18:05:10.445Z,3.27
2018-01-16T18:07:38.059Z,4.80
2018-01-16T18:10:05.674Z,3.13
2018-01-16T18:12:33.301Z,4.33
2018-01-16T18:15:00.939Z,2.97
2018-01-16T18:17:42.818Z,3.17
2018-01-16T18:20:10.432Z,3.40
2018-01-16T18:22:37.992Z,4.20
2018-01-16T18:25:05.593Z,2.90
2018-01-16T18:27:33.250Z,3.03
2018-01-16T18:30:00.797Z,4.33
2018-01-16T18:32:28.455Z,3.83
2018-01-16T18:34:55.998Z,3.50
2018-01-16T18:37:33.385Z,3.23
2018-01-16T18:40:01.536Z,3.47
2018-01-16T18:42:29.198Z,5.40
2018-01-16T18:44:56.778Z,3.33
2018-01-16T18:47:35.287Z,3.17
2018-01-16T18:50:03.153Z,3.30
2018-01-16T18:52:30.974Z,2.80
2018-01-16T18:54:58.672Z,3.67
2018-01-16T18:57:31.488Z,3.90
2018-01-16T18:59:59.101Z,3.60
2018-01-16T19:02:26.729Z,4.17
2018-01-16T19:04:54.382Z,2.90
2018-01-16T19:07:27.224Z,3.03
2018-01-16T19:09:54.903Z,3.27
2018-01-16T19:12:22.375Z,3.63
2018-01-16T19:14:49.931Z,4.40
2018-01-16T19:17:17.682Z,3.63
2018-01-16T19:19:45.155Z,4.10
2018-01-16T19:22:12.728Z,4.03
2018-01-16T19:24:40.463Z,5.77
2018-01-16T19:27:08.115Z,3.30
2018-01-16T19:29:35.660Z,5.10
2018-01-16T19:32:03.145Z,3.90
2018-01-16T19:34:30.822Z,4.47
2018-01-16T19:37:12.767Z,5.60
2018-01-16T19:39:40.323Z,4.60
2018-01-16T19:42:07.938Z,5.63
2018-01-16T19:44:35.473Z,6.93
2018-01-16T19:47:03.462Z,4.20
2018-01-16T19:49:31.112Z,3.90
2018-01-16T19:51:58.706Z,6.23
2018-01-16T19:54:26.228Z,5.03
2018-01-16T19:56:53.713Z,4.60
2018-01-16T19:59:21.229Z,5.00
2018-01-16T20:01:48.802Z,3.67
2018-01-16T20:04:16.384Z,3.30
2018-01-16T20:06:44.041Z,4.53
2018-01-16T20:09:11.732Z,7.13
2018-01-16T20:11:39.421Z,8.30
2018-01-16T20:14:06.936Z,4.57
2018-01-16T20:16:34.736Z,4.40
2018-01-16T20:19:02.296Z,4.43
2018-01-16T20:21:29.892Z,5.87
2018-01-16T20:23:57.480Z,7.00
2018-01-16T20:26:25.028Z,3.40
2018-01-16T20:28:52.610Z,5.40
2018-01-16T20:31:20.204Z,4.67
2018-01-16T20:33:47.767Z,5.27
2018-01-16T20:36:15.293Z,3.90
2018-01-16T20:38:42.830Z,7.20
2018-01-16T20:41:10.452Z,4.40
2018-01-16T20:43:38.010Z,5.80
2018-01-16T20:46:05.758Z,4.50
2018-01-16T20:48:33.439Z,5.10
2018-01-16T20:51:01.035Z,5.30
2018-01-16T20:53:28.758Z,5.63
2018-01-16T20:55:56.305Z,4.80
2018-01-16T20:58:24.146Z,4.63
2018-01-16T21:00:52.192Z,6.97
2018-01-16T21:03:19.807Z,4.43
2018-01-16T21:05:47.349Z,4.60
2018-01-16T21:08:15.007Z,5.47
2018-01-16T21:10:42.868Z,4.33
2018-01-16T21:13:10.505Z,6.63
2018-01-16T21:15:38.091Z,5.10
2018-01-16T21:18:05.615Z,5.57
2018-01-16T21:20:33.401Z,6.20
2018-01-16T21:23:00.940Z,5.77
2018-01-16T21:25:28.510Z,5.23
2018-01-16T21:27:56.168Z,4.27
2018-01-16T21:30:23.798Z,4.40
2018-01-16T21:32:51.410Z,6.60
2018-01-16T21:35:19.453Z,5.83
2018-01-16T21:37:47.140Z,4.40
2018-01-16T21:40:14.662Z,4.70
2018-01-16T21:42:42.216Z,4.20
2018-01-16T21:45:09.722Z,5.67
2018-01-16T21:47:37.209Z,6.37
2018-01-16T21:50:05.176Z,5.00
2018-01-16T21:52:32.692Z,5.77
2018-01-16T21:55:00.316Z,5.90
2018-01-16T21:57:33.045Z,5.80
2018-01-16T22:00:00.643Z,3.63
2018-01-16T22:02:28.235Z,5.77
2018-01-16T22:04:55.725Z,6.57
2018-01-16T22:07:23.390Z,6.77
2018-01-16T22:09:50.931Z,7.23
2018-01-16T22:12:18.535Z,4.73
2018-01-16T22:14:46.085Z,5.13
2018-01-16T22:17:13.672Z,5.50
2018-01-16T22:19:41.205Z,6.17
2018-01-16T22:22:08.808Z,6.07
2018-01-16T22:24:36.528Z,7.80
2018-01-16T22:27:04.425Z,4.73
2018-01-16T22:29:32.070Z,6.93
2018-01-16T22:32:01.296Z,4.33
2018-01-16T22:34:29.148Z,4.83
2018-01-16T22:37:00.088Z,6.47
2018-01-16T22:39:28.200Z,4.27
2018-01-16T22:41:55.728Z,6.67
2018-01-16T22:44:23.269Z,6.57
2018-01-16T22:46:50.864Z,8.73
2018-01-16T22:49:18.434Z,5.13
2018-01-16T22:51:46.067Z,7.00
2018-01-16T22:54:13.682Z,4.23
2018-01-16T22:56:41.232Z,6.00
2018-01-16T22:59:08.950Z,8.03
2018-01-16T23:01:36.473Z,7.27
2018-01-16T23:04:04.015Z,5.20
2018-01-16T23:06:36.535Z,4.90
2018-01-16T23:09:04.216Z,6.27
2018-01-16T23:11:32.003Z,6.67
2018-01-16T23:13:59.477Z,4.47
2018-01-16T23:16:27.213Z,6.30
2018-01-16T23:18:54.755Z,5.43
2018-01-16T23:21:22.355Z,4.87
2018-01-16T23:23:49.852Z,4.40
2018-01-16T23:26:17.377Z,5.17
2018-01-16T23:28:44.870Z,6.60
2018-01-16T23:31:12.458Z,5.80
2018-01-16T23:33:40.044Z,7.57
2018-01-16T23:36:07.566Z,6.20
2018-01-16T23:38:35.034Z,6.27
2018-01-16T23:41:02.588Z,5.47
2018-01-16T23:43:30.298Z,6.33
2018-01-16T23:45:57.833Z,6.67
2018-01-16T23:48:25.482Z,6.43
2018-01-16T23:50:53.037Z,6.00
2018-01-16T23:53:20.511Z,5.13
2018-01-16T23:55:48.041Z,6.73
2018-01-16T23:58:15.562Z,6.03
